Time;durP1;ratioP1;P1;durP2;ratioP2;P2;SDS_P1;SDS_P2;PMS_P1;PMS_P2;Temp;Humidity;BMP_temperature;BMP_pressure;BME280_temperature;BME280_humidity;BME280_pressure;Samples;Min_cycle;Max_cycle;Signal;HPM_P1;HPM_P2
2021/06/20 00:01:10;;;;;;;6.67;2.05;;;;;;;21.06;73.65;100351.25;1713568;82;21006;-78
2021/06/20 00:03:37;;;;;;;7.47;2.10;;;;;;;20.99;73.72;100344.14;1716398;80;21468;-77
2021/06/20 00:06:34;;;;;;;5.65;2.10;;;;;;;20.96;73.72;100341.33;1708576;81;21535;-77
2021/06/20 00:09:10;;;;;;;8.23;2.08;;;;;;;20.96;73.71;100341.33;1713128;82;21359;-77
2021/06/20 00:11:41;;;;;;;7.05;2.22;;;;;;;20.92;73.73;100340.03;1751329;80;20980;-78
2021/06/20 00:14:08;;;;;;;5.58;2.25;;;;;;;20.89;74.02;100336.91;1711226;82;20964;-78
2021/06/20 00:16:35;;;;;;;8.25;2.40;;;;;;;20.85;73.99;100334.61;1734573;80;21399;-80
2021/06/20 00:19:05;;;;;;;6.08;2.02;;;;;;;20.86;73.97;100328.73;1749864;80;21420;-78
2021/06/20 00:21:32;;;;;;;6.50;1.87;;;;;;;20.83;73.86;100320.52;1717200;82;21000;-78
2021/06/20 00:23:59;;;;;;;10.75;2.02;;;;;;;20.79;73.79;100323.78;1713919;81;21829;-78
2021/06/20 00:26:25;;;;;;;4.65;1.98;;;;;;;20.78;73.56;100316.25;1698492;81;21327;-78
2021/06/20 00:28:54;;;;;;;6.05;2.10;;;;;;;20.79;73.36;100307.68;1718404;82;21004;-77
2021/06/20 00:31:20;;;;;;;3.35;1.65;;;;;;;20.81;72.96;100310.48;1715038;82;21100;-77
2021/06/20 00:33:47;;;;;;;6.97;1.72;;;;;;;20.83;72.75;100299.55;1717635;82;21388;-77
2021/06/20 00:36:13;;;;;;;7.22;2.00;;;;;;;20.82;72.51;100305.95;1727088;82;22478;-78
2021/06/20 00:38:40;;;;;;;7.17;1.90;;;;;;;20.84;72.06;100307.92;1743722;80;21004;-77
2021/06/20 00:41:08;;;;;;;5.17;2.17;;;;;;;20.84;71.65;100305.23;1744140;80;21107;-77
2021/06/20 00:43:35;;;;;;;6.30;1.95;;;;;;;20.82;71.23;100312.14;1713420;82;21095;-78
2021/06/20 00:46:05;;;;;;;4.72;1.55;;;;;;;20.78;71.21;100304.17;1730289;82;21036;-78
2021/06/20 00:48:31;;;;;;;3.33;1.90;;;;;;;20.74;71.56;100312.26;1717653;82;21877;-78
2021/06/20 00:50:57;;;;;;;5.37;1.72;;;;;;;20.70;71.20;100310.98;1747581;80;20941;-78
2021/06/20 00:53:24;;;;;;;5.33;1.72;;;;;;;20.69;70.84;100307.98;1721294;80;21024;-77
2021/06/20 00:55:50;;;;;;;9.10;1.70;;;;;;;20.70;70.60;100302.94;1746868;80;20965;-77
2021/06/20 00:58:20;;;;;;;6.87;1.60;;;;;;;20.70;70.41;100295.39;1710183;82;20967;-77
2021/06/20 01:00:47;;;;;;;8.75;1.67;;;;;;;20.70;70.38;100286.00;1750705;80;22488;-77
2021/06/20 01:03:14;;;;;;;3.83;1.50;;;;;;;20.67;70.43;100281.02;1714746;81;21031;-77
2021/06/20 01:05:42;;;;;;;2.35;1.57;;;;;;;20.64;70.32;100275.50;1723161;80;20949;-77
2021/06/20 01:08:09;;;;;;;9.43;1.70;;;;;;;20.63;70.26;100279.20;1751678;82;21178;-77
2021/06/20 01:10:36;;;;;;;6.55;1.55;;;;;;;20.62;70.20;100286.11;1690075;81;21071;-77
2021/06/20 01:13:07;;;;;;;3.47;1.20;;;;;;;20.63;70.03;100287.77;1729057;81;22137;-77
2021/06/20 01:15:34;;;;;;;4.42;1.50;;;;;;;20.61;69.82;100291.16;1720621;81;20983;-77
2021/06/20 01:18:01;;;;;;;4.78;1.77;;;;;;;20.62;69.86;100276.72;1746949;80;21013;-78
2021/06/20 01:20:28;;;;;;;4.10;1.60;;;;;;;20.59;70.15;100272.56;1736724;80;20973;-77
2021/06/20 01:22:55;;;;;;;5.05;1.57;;;;;;;20.54;70.27;100273.12;1745249;80;21016;-80
2021/06/20 01:25:24;;;;;;;7.80;1.50;;;;;;;20.55;70.12;100292.73;1739912;80;21861;-77
2021/06/20 01:27:54;;;;;;;6.65;1.47;;;;;;;20.56;69.97;100305.98;1696870;83;21388;-77
2021/06/20 01:30:24;;;;;;;4.12;1.80;;;;;;;20.58;69.78;100282.98;1716350;81;21064;-77
2021/06/20 01:32:52;;;;;;;5.42;1.55;;;;;;;20.58;69.96;100273.08;1702879;82;21055;-77
2021/06/20 01:35:19;;;;;;;4.15;1.77;;;;;;;20.53;69.91;100274.14;1727747;80;21519;-77
2021/06/20 01:37:45;;;;;;;7.03;1.65;;;;;;;20.49;70.08;100269.36;1711634;82;22440;-77
2021/06/20 01:40:14;;;;;;;5.25;1.47;;;;;;;20.46;69.93;100273.26;1722426;82;21553;-77
2021/06/20 01:42:41;;;;;;;6.22;1.62;;;;;;;20.48;69.71;100270.38;1718321;81;20986;-77
2021/06/20 01:45:09;;;;;;;5.33;1.50;;;;;;;20.48;69.49;100261.82;1742197;80;20958;-77
2021/06/20 01:47:36;;;;;;;6.42;1.52;;;;;;;20.47;69.40;100262.84;1750693;80;21011;-77
2021/06/20 01:50:09;;;;;;;7.75;1.50;;;;;;;20.43;69.41;100258.03;1709677;82;21818;-78
2021/06/20 01:52:35;;;;;;;4.53;1.77;;;;;;;20.42;69.24;100255.83;1716879;82;21051;-77
2021/06/20 01:55:01;;;;;;;5.75;1.70;;;;;;;20.42;69.11;100250.46;1709908;82;21083;-77
2021/06/20 01:57:34;;;;;;;6.10;1.65;;;;;;;20.42;69.04;100247.77;1726420;82;20965;-78
2021/06/20 02:00:04;;;;;;;3.52;1.40;;;;;;;20.42;68.63;100252.31;1686175;81;21340;-78
2021/06/20 02:02:33;;;;;;;3.47;1.72;;;;;;;20.43;68.34;100244.10;1713512;82;21852;-77
2021/06/20 02:04:59;;;;;;;2.65;1.35;;;;;;;20.45;68.07;100243.91;1737787;80;21060;-77
2021/06/20 02:07:27;;;;;;;5.45;1.40;;;;;;;20.46;67.70;100238.86;1746123;80;21070;-77
2021/06/20 02:09:56;;;;;;;7.65;1.70;;;;;;;20.49;67.39;100246.55;1732562;80;21267;-78
2021/06/20 02:12:24;;;;;;;3.58;1.30;;;;;;;20.48;66.95;100249.75;1723660;82;21690;-84
2021/06/20 02:14:51;;;;;;;4.33;1.40;;;;;;;20.48;66.77;100252.43;1738170;80;21802;-77
2021/06/20 02:17:32;;;;;;;3.95;1.50;;;;;;;20.47;66.78;100249.94;1728106;82;21003;-79
2021/06/20 02:20:15;;;;;;;6.05;1.70;;;;;;;20.46;66.69;100246.42;1727844;81;21044;-77
2021/06/20 02:22:42;;;;;;;6.95;1.52;;;;;;;20.46;66.83;100242.88;1728803;80;21169;-77
2021/06/20 02:25:12;;;;;;;3.83;1.80;;;;;;;20.44;66.94;100245.77;1750546;80;21128;-77
2021/06/20 02:27:40;;;;;;;2.62;1.62;;;;;;;20.43;67.02;100250.81;1750737;80;22458;-77
2021/06/20 02:30:08;;;;;;;3.42;1.30;;;;;;;20.44;67.20;100244.94;1718029;82;21009;-78
2021/06/20 02:32:35;;;;;;;4.90;1.70;;;;;;;20.44;67.32;100251.64;1712217;82;21079;-77
2021/06/20 02:35:02;;;;;;;3.08;1.60;;;;;;;20.45;67.44;100250.11;1749138;80;21024;-78
2021/06/20 02:37:31;;;;;;;3.27;1.40;;;;;;;20.47;67.49;100248.60;1676214;82;21736;-77
2021/06/20 02:39:57;;;;;;;5.55;1.60;;;;;;;20.50;67.64;100253.58;1723750;81;21834;-78
2021/06/20 02:42:23;;;;;;;3.58;1.42;;;;;;;20.53;67.77;100254.53;1729061;80;20953;-77
2021/06/20 02:44:50;;;;;;;5.58;1.52;;;;;;;20.57;67.83;100247.78;1750910;80;20964;-77
2021/06/20 02:47:17;;;;;;;5.25;1.60;;;;;;;20.63;67.84;100242.98;1748408;80;21049;-77
2021/06/20 02:49:45;;;;;;;2.77;1.30;;;;;;;20.69;67.72;100231.49;1716830;81;21052;-77
2021/06/20 02:52:14;;;;;;;2.92;1.42;;;;;;;20.75;67.52;100223.17;1683387;83;22252;-77
2021/06/20 02:54:51;;;;;;;4.00;1.35;;;;;;;20.81;66.95;100223.24;1713847;82;21013;-77
2021/06/20 02:57:27;;;;;;;2.87;1.27;;;;;;;20.86;66.25;100222.69;1737712;80;21074;-77
2021/06/20 02:59:53;;;;;;;5.00;1.50;;;;;;;20.91;65.94;100224.27;1673294;81;21441;-77
2021/06/20 03:02:21;;;;;;;3.15;1.45;;;;;;;20.96;65.62;100216.48;1724652;82;20945;-77
2021/06/20 03:04:49;;;;;;;3.92;1.60;;;;;;;20.98;65.38;100218.97;1718495;82;21798;-77
2021/06/20 03:07:16;;;;;;;5.40;1.20;;;;;;;21.00;65.13;100225.80;1749949;79;21060;-77
2021/06/20 03:09:43;;;;;;;4.53;1.30;;;;;;;21.02;64.75;100218.88;1745087;80;21130;-77
2021/06/20 03:12:12;;;;;;;3.98;1.20;;;;;;;21.05;64.54;100218.00;1716518;82;21047;-77
2021/06/20 03:14:39;;;;;;;5.80;1.50;;;;;;;21.05;64.14;100213.15;1723965;80;21617;-80
2021/06/20 03:17:06;;;;;;;3.90;1.30;;;;;;;21.05;63.70;100222.03;1748822;80;21898;-77
2021/06/20 03:19:34;;;;;;;3.33;1.10;;;;;;;21.09;63.56;100236.72;1725406;81;21472;-77
2021/06/20 03:22:03;;;;;;;3.08;1.20;;;;;;;21.11;63.39;100227.95;1736120;80;20936;-79
2021/06/20 03:24:33;;;;;;;3.25;1.40;;;;;;;21.14;63.19;100233.47;1740216;80;20991;-77
2021/06/20 03:27:00;;;;;;;5.92;1.40;;;;;;;21.18;63.21;100244.13;1735840;80;21001;-77
2021/06/20 03:29:26;;;;;;;4.25;1.40;;;;;;;21.20;62.86;100239.39;1750707;80;21804;-77
2021/06/20 03:31:53;;;;;;;4.92;1.40;;;;;;;21.22;62.38;100237.34;1707197;81;21040;-77
2021/06/20 03:34:20;;;;;;;4.33;1.27;;;;;;;21.26;62.42;100241.34;1742387;80;20945;-77
2021/06/20 03:36:47;;;;;;;3.02;1.20;;;;;;;21.28;62.00;100235.77;1716993;81;21012;-78
2021/06/20 03:39:13;;;;;;;3.50;1.25;;;;;;;21.31;61.66;100236.72;1715278;82;21025;-77
2021/06/20 03:41:40;;;;;;;2.47;1.30;;;;;;;21.34;61.97;100237.69;1688758;81;21826;-77
2021/06/20 03:44:07;;;;;;;3.83;1.30;;;;;;;21.38;62.17;100241.63;1711430;82;20989;-77
2021/06/20 03:46:34;;;;;;;8.30;1.40;;;;;;;21.39;61.74;100236.06;1739284;80;21167;-77
2021/06/20 03:49:01;;;;;;;4.80;1.10;;;;;;;21.44;61.17;100231.46;1751135;80;21060;-77
2021/06/20 03:51:28;;;;;;;4.37;1.47;;;;;;;21.49;60.71;100229.52;1749099;80;21497;-77
2021/06/20 03:53:54;;;;;;;3.58;1.20;;;;;;;21.53;60.62;100228.94;1738352;81;21789;-77
2021/06/20 03:56:21;;;;;;;7.10;1.60;;;;;;;21.57;60.15;100221.31;1744594;80;21075;-79
2021/06/20 03:58:49;;;;;;;5.85;1.40;;;;;;;21.59;59.94;100219.24;1748773;80;21519;-77
2021/06/20 04:01:15;;;;;;;4.78;1.20;;;;;;;21.60;59.74;100216.36;1751668;80;21038;-77
2021/06/20 04:03:43;;;;;;;4.42;1.32;;;;;;;21.61;59.67;100218.02;1740360;80;20953;-77
2021/06/20 04:06:09;;;;;;;3.22;1.25;;;;;;;21.63;59.62;100209.27;1748517;80;22593;-77
2021/06/20 04:08:36;;;;;;;5.70;1.50;;;;;;;21.64;59.28;100217.64;1734355;80;21368;-78
2021/06/20 04:11:03;;;;;;;3.33;1.22;;;;;;;21.64;59.14;100212.78;1751944;80;21497;-77
2021/06/20 04:13:30;;;;;;;8.83;1.40;;;;;;;21.64;59.19;100214.13;1715633;82;21032;-77
2021/06/20 04:15:56;;;;;;;5.83;1.50;;;;;;;21.61;59.17;100209.95;1722219;82;20956;-78
2021/06/20 04:18:23;;;;;;;4.85;1.30;;;;;;;21.59;59.16;100207.98;1708665;82;22489;-77
2021/06/20 04:20:49;;;;;;;4.90;1.42;;;;;;;21.57;59.19;100208.70;1726762;82;21399;-77
2021/06/20 04:23:16;;;;;;;6.50;1.45;;;;;;;21.56;58.99;100210.24;1676352;82;21036;-78
2021/06/20 04:25:43;;;;;;;7.05;1.32;;;;;;;21.56;59.23;100211.59;1705686;82;21035;-77
2021/06/20 04:28:09;;;;;;;5.22;1.10;;;;;;;21.57;58.49;100210.04;1738999;80;20945;-77
2021/06/20 04:30:36;;;;;;;3.02;1.10;;;;;;;21.60;58.75;100212.84;1746816;80;21811;-77
2021/06/20 04:33:03;;;;;;;5.15;1.32;;;;;;;21.63;58.58;100209.78;1747106;80;21078;-77
2021/06/20 04:35:30;;;;;;;6.20;1.40;;;;;;;21.66;58.68;100214.75;1758840;80;21004;-77
2021/06/20 04:37:56;;;;;;;4.65;1.15;;;;;;;21.73;58.08;100218.31;1750006;80;21213;-77
2021/06/20 04:40:24;;;;;;;9.43;1.80;;;;;;;21.80;57.74;100221.84;1688758;82;21075;-77
2021/06/20 04:42:58;;;;;;;3.75;1.32;;;;;;;21.86;57.63;100218.38;1727822;82;21809;-77
2021/06/20 04:45:24;;;;;;;;;;;;;;;21.93;57.51;100220.59;1719790;81;21056;-77
2021/06/20 04:47:50;;;;;;;4.12;1.15;;;;;;;22.02;57.21;100229.33;1746930;80;20733;-77
2021/06/20 04:50:17;;;;;;;9.43;1.20;;;;;;;22.06;57.25;100225.71;1714625;81;21519;-77
2021/06/20 04:52:44;;;;;;;6.50;1.30;;;;;;;22.13;57.10;100227.95;1720391;82;21518;-77
2021/06/20 04:55:11;;;;;;;7.60;1.12;;;;;;;22.16;56.76;100234.27;1723317;82;22644;-77
2021/06/20 04:57:38;;;;;;;2.42;0.90;;;;;;;22.16;56.43;100233.75;1739975;80;20896;-78
2021/06/20 05:00:07;;;;;;;3.25;1.30;;;;;;;22.17;56.56;100238.09;1735883;80;21073;-78
2021/06/20 05:02:33;;;;;;;4.78;1.10;;;;;;;22.21;56.21;100242.06;1731549;80;21001;-77
2021/06/20 05:05:00;;;;;;;4.08;1.25;;;;;;;22.24;55.92;100242.17;1722878;80;21340;-77
2021/06/20 05:07:28;;;;;;;5.28;1.05;;;;;;;22.30;56.14;100244.07;1718303;82;22662;-77
2021/06/20 05:09:54;;;;;;;5.83;1.52;;;;;;;22.37;56.05;100238.69;1734593;80;21003;-77
2021/06/20 05:12:21;;;;;;;4.62;1.25;;;;;;;22.47;56.29;100236.45;1751018;80;21004;-78
2021/06/20 05:14:48;;;;;;;6.17;1.30;;;;;;;22.59;56.29;100235.36;1721770;81;22523;-78
2021/06/20 05:17:16;;;;;;;5.67;1.20;;;;;;;22.69;56.06;100231.24;1693430;82;21062;-78
2021/06/20 05:19:44;;;;;;;7.05;0.90;;;;;;;22.81;56.44;100230.12;1731090;80;21815;-77
2021/06/20 05:22:11;;;;;;;3.45;1.30;;;;;;;22.90;55.83;100220.02;1753840;80;21004;-77
2021/06/20 05:24:40;;;;;;;6.35;1.20;;;;;;;22.97;55.88;100220.83;1734284;80;21032;-77
2021/06/20 05:27:08;;;;;;;3.20;1.10;;;;;;;22.99;55.83;100222.30;1745026;80;21075;-78
2021/06/20 05:29:35;;;;;;;8.15;1.50;;;;;;;23.05;56.02;100232.75;1722029;81;20974;-77
2021/06/20 05:32:01;;;;;;;4.85;1.30;;;;;;;23.09;55.42;100232.66;1715405;82;21800;-78
2021/06/20 05:34:28;;;;;;;4.45;1.20;;;;;;;23.13;55.32;100232.03;1723218;82;21412;-77
2021/06/20 05:36:54;;;;;;;4.62;1.20;;;;;;;23.19;54.97;100236.30;1739844;81;21011;-77
2021/06/20 05:39:21;;;;;;;3.50;1.30;;;;;;;23.23;54.55;100229.44;1707857;82;21063;-78
2021/06/20 05:41:47;;;;;;;3.08;1.00;;;;;;;23.25;54.31;100226.84;1710139;81;21032;-77
2021/06/20 05:44:17;;;;;;;6.90;1.22;;;;;;;23.25;54.46;100228.19;1728730;80;21815;-78
2021/06/20 05:46:43;;;;;;;3.10;1.10;;;;;;;23.23;53.83;100234.31;1742047;80;20975;-77
2021/06/20 05:49:10;;;;;;;3.85;1.20;;;;;;;23.17;53.53;100235.16;1711629;81;21963;-79
2021/06/20 05:51:38;;;;;;;3.40;1.00;;;;;;;23.15;53.52;100237.20;1691615;82;21079;-77
2021/06/20 05:54:04;;;;;;;4.10;1.02;;;;;;;23.17;53.32;100236.51;1745755;80;21091;-77
2021/06/20 05:56:31;;;;;;;7.80;1.20;;;;;;;23.14;53.16;100246.33;1742353;80;21826;-77
2021/06/20 05:58:57;;;;;;;3.77;1.30;;;;;;;23.15;53.59;100241.25;1718382;81;21028;-77
2021/06/20 06:01:24;;;;;;;4.83;1.20;;;;;;;23.19;53.28;100245.72;1734262;80;21039;-78
2021/06/20 06:03:51;;;;;;;3.90;1.25;;;;;;;23.22;53.39;100247.99;1708769;82;21095;-80
2021/06/20 06:06:18;;;;;;;6.50;1.20;;;;;;;23.24;53.18;100258.87;1745583;80;21039;-77
2021/06/20 06:08:46;;;;;;;6.28;1.45;;;;;;;23.26;52.99;100254.13;1748121;81;21000;-77
2021/06/20 06:11:12;;;;;;;3.15;1.00;;;;;;;23.32;53.80;100263.23;1714568;81;20949;-78
2021/06/20 06:13:39;;;;;;;3.27;1.20;;;;;;;23.39;53.00;100251.94;1719956;82;21032;-77
2021/06/20 06:16:06;;;;;;;4.67;1.30;;;;;;;23.41;52.38;100250.68;1689166;82;21527;-77
2021/06/20 06:18:32;;;;;;;5.42;1.05;;;;;;;23.40;52.36;100252.24;1690549;80;21501;-79
2021/06/20 06:20:58;;;;;;;4.35;0.95;;;;;;;23.44;52.97;100254.81;1743482;80;21788;-77
2021/06/20 06:23:25;;;;;;;2.92;1.02;;;;;;;23.46;52.46;100247.89;1702888;81;21080;-79
2021/06/20 06:25:51;;;;;;;3.72;1.07;;;;;;;23.39;52.31;100245.20;1715570;81;20970;-77
2021/06/20 06:28:18;;;;;;;3.85;1.07;;;;;;;23.34;53.03;100245.80;1722467;81;21417;-79
2021/06/20 06:30:45;;;;;;;4.33;1.37;;;;;;;23.32;53.06;100238.97;1729113;82;21120;-78
2021/06/20 06:33:12;;;;;;;4.92;1.00;;;;;;;23.30;53.12;100234.31;1689460;83;21872;-78
2021/06/20 06:35:39;;;;;;;2.83;1.12;;;;;;;23.37;53.84;100241.37;1719176;81;21132;-79
2021/06/20 06:38:06;;;;;;;7.75;1.10;;;;;;;23.48;53.08;100229.64;1737531;79;21131;-78
2021/06/20 06:40:32;;;;;;;2.85;1.12;;;;;;;23.54;52.71;100232.30;1750554;80;21012;-78
2021/06/20 06:42:59;;;;;;;6.70;1.30;;;;;;;23.63;52.30;100228.38;1715686;82;20998;-77
2021/06/20 06:45:27;;;;;;;3.25;1.20;;;;;;;23.74;52.40;100232.82;1728915;82;22439;-80
2021/06/20 06:47:54;;;;;;;10.20;1.27;;;;;;;23.81;51.93;100229.07;1695775;82;21127;-79
2021/06/20 06:50:21;;;;;;;6.58;1.32;;;;;;;23.88;52.52;100228.55;1719648;82;21052;-77
2021/06/20 06:52:47;;;;;;;6.03;1.25;;;;;;;23.97;52.21;100227.27;1717465;82;21014;-78
2021/06/20 06:55:14;;;;;;;4.72;1.07;;;;;;;24.06;51.98;100229.21;1726642;82;21127;-77
2021/06/20 06:57:40;;;;;;;5.58;1.40;;;;;;;24.15;51.90;100226.59;1708860;82;22458;-78
2021/06/20 07:00:08;;;;;;;4.45;1.10;;;;;;;24.28;51.95;100222.47;1736187;80;21060;-78
2021/06/20 07:02:36;;;;;;;7.60;1.37;;;;;;;24.41;51.41;100219.42;1748133;79;21537;-79
2021/06/20 07:05:05;;;;;;;6.72;1.42;;;;;;;24.51;50.70;100212.53;1744262;78;21143;-78
2021/06/20 07:07:34;;;;;;;6.25;1.15;;;;;;;24.58;50.55;100204.38;1722857;81;21470;-78
2021/06/20 07:10:03;;;;;;;8.85;1.60;;;;;;;24.62;49.87;100201.56;1709685;83;21830;-78
2021/06/20 07:12:32;;;;;;;6.12;1.32;;;;;;;24.63;49.17;100199.69;1724946;80;21567;-81
2021/06/20 07:15:04;;;;;;;7.42;1.17;;;;;;;24.64;49.19;100204.86;1752025;80;20996;-78
2021/06/20 07:17:33;;;;;;;7.08;1.30;;;;;;;24.65;48.67;100205.69;1746439;80;21316;-78
2021/06/20 07:20:01;;;;;;;6.10;1.20;;;;;;;24.67;49.04;100200.89;1749956;80;21051;-77
2021/06/20 07:22:29;;;;;;;4.70;1.20;;;;;;;24.72;50.56;100208.66;1714969;82;21803;-76
2021/06/20 07:24:57;;;;;;;6.92;1.42;;;;;;;24.83;49.83;100207.13;1720647;82;21182;-76
2021/06/20 07:27:24;;;;;;;7.12;1.40;;;;;;;24.92;49.67;100199.58;1714017;82;21095;-77
2021/06/20 07:29:52;;;;;;;11.55;1.17;;;;;;;24.94;48.81;100192.91;1746257;80;21106;-75
2021/06/20 07:32:18;;;;;;;6.95;1.45;;;;;;;24.98;48.66;100190.05;1712079;81;22297;-81
2021/06/20 07:34:45;;;;;;;8.05;1.30;;;;;;;25.08;49.09;100185.01;1711934;81;21831;-76
2021/06/20 07:37:11;;;;;;;9.33;1.50;;;;;;;25.16;48.72;100185.78;1703914;82;21019;-78
2021/06/20 07:39:37;;;;;;;7.72;1.60;;;;;;;25.22;48.83;100176.27;1740846;80;21047;-79
2021/06/20 07:42:05;;;;;;;4.62;1.20;;;;;;;25.30;49.24;100181.40;1724699;82;21092;-77
2021/06/20 07:44:32;;;;;;;4.12;1.10;;;;;;;25.38;48.37;100177.06;1712840;82;21336;-84
2021/06/20 07:46:58;;;;;;;8.43;1.42;;;;;;;25.47;48.23;100173.52;1687531;83;21802;-84
2021/06/20 07:49:25;;;;;;;4.92;1.27;;;;;;;25.53;48.32;100185.33;1679280;84;21134;-78
2021/06/20 07:51:52;;;;;;;10.95;1.47;;;;;;;25.57;47.20;100179.75;1703579;82;21600;-75
2021/06/20 07:54:18;;;;;;;10.85;1.55;;;;;;;25.56;47.83;100178.11;1743763;79;21469;-79
2021/06/20 07:56:45;;;;;;;7.87;1.40;;;;;;;25.59;47.16;100170.92;1750056;80;21053;-76
2021/06/20 07:59:12;;;;;;;7.30;1.50;;;;;;;25.58;47.66;100173.33;1721413;82;22689;-80
2021/06/20 08:01:39;;;;;;;7.72;1.60;;;;;;;25.67;47.78;100175.50;1750264;80;20921;-77
2021/06/20 08:04:06;;;;;;;10.10;1.57;;;;;;;25.79;47.25;100177.48;1715011;82;21454;-77
2021/06/20 08:06:32;;;;;;;7.83;1.20;;;;;;;25.89;47.49;100179.95;1717013;82;21371;-75
2021/06/20 08:09:00;;;;;;;12.10;1.60;;;;;;;26.01;46.53;100188.66;1690577;81;21078;-76
2021/06/20 08:11:27;;;;;;;6.37;1.60;;;;;;;26.10;45.88;100190.00;1716968;82;21763;-76
2021/06/20 08:13:56;;;;;;;7.17;1.40;;;;;;;26.19;46.26;100188.11;1716124;82;21025;-75
2021/06/20 08:16:23;;;;;;;6.55;1.67;;;;;;;26.27;44.96;100183.44;1712604;81;20961;-81
2021/06/20 08:18:49;;;;;;;13.22;1.42;;;;;;;26.28;44.82;100194.03;1726755;82;21873;-74
2021/06/20 08:21:16;;;;;;;7.15;2.12;;;;;;;26.32;44.77;100197.09;1708957;82;20912;-74
2021/06/20 08:23:43;;;;;;;9.73;1.50;;;;;;;26.38;45.62;100196.23;1707187;81;21762;-76
2021/06/20 08:26:09;;;;;;;7.53;1.47;;;;;;;26.48;45.04;100204.09;1739793;79;21062;-76
2021/06/20 08:28:36;;;;;;;9.10;1.30;;;;;;;26.56;45.15;100213.78;1696164;82;21072;-79
2021/06/20 08:31:03;;;;;;;11.57;1.82;;;;;;;26.64;45.50;100212.64;1728697;82;21267;-79
2021/06/20 08:33:29;;;;;;;8.93;1.32;;;;;;;26.69;45.42;100223.06;1710761;82;20996;-75
2021/06/20 08:35:56;;;;;;;7.37;1.47;;;;;;;26.78;45.74;100229.80;1746754;80;21790;-77
2021/06/20 08:38:23;;;;;;;11.85;1.65;;;;;;;26.87;46.09;100229.48;1737859;80;21440;-78
2021/06/20 08:40:49;;;;;;;12.28;1.60;;;;;;;26.97;46.31;100236.52;1710982;82;21408;-76
2021/06/20 08:43:16;;;;;;;13.90;1.90;;;;;;;27.08;46.33;100237.09;1749577;80;21487;-76
2021/06/20 08:45:42;;;;;;;9.68;1.30;;;;;;;27.13;45.33;100231.80;1695054;82;21025;-76
2021/06/20 08:48:11;;;;;;;12.05;1.60;;;;;;;27.11;44.38;100223.06;1694911;82;21811;-75
2021/06/20 08:50:38;;;;;;;7.40;1.25;;;;;;;27.04;45.12;100234.56;1748042;80;21618;-76
2021/06/20 08:53:05;;;;;;;6.78;1.40;;;;;;;27.01;44.96;100227.66;1735201;80;20916;-76
2021/06/20 08:55:34;;;;;;;11.33;1.50;;;;;;;26.97;44.28;100232.44;1730825;80;21508;-76
2021/06/20 08:58:18;;;;;;;9.38;1.47;;;;;;;26.96;44.28;100227.55;1746127;80;21068;-76
2021/06/20 09:00:45;;;;;;;7.12;1.47;;;;;;;26.93;44.53;100229.38;1747841;78;21845;-76
2021/06/20 09:03:11;;;;;;;9.03;1.50;;;;;;;26.93;45.35;100225.85;1772230;78;20973;-75
2021/06/20 09:05:39;;;;;;;8.60;1.47;;;;;;;26.97;45.39;100220.25;1767943;79;20968;-76
2021/06/20 09:08:16;;;;;;;10.45;1.70;;;;;;;27.06;46.29;100221.06;1717448;81;21261;-73
2021/06/20 09:10:42;;;;;;;12.55;1.50;;;;;;;27.17;46.48;100213.17;1736336;80;21008;-75
2021/06/20 09:13:12;;;;;;;8.98;1.50;;;;;;;27.30;47.07;100215.65;1750302;79;21052;-77
2021/06/20 09:15:38;;;;;;;9.43;1.30;;;;;;;27.38;46.27;100217.48;1686318;83;21368;-77
2021/06/20 09:18:08;;;;;;;10.10;1.40;;;;;;;27.34;45.22;100214.95;1749466;80;21476;-76
2021/06/20 09:20:41;;;;;;;6.85;1.55;;;;;;;27.25;45.16;100212.30;1749526;80;21143;-77
2021/06/20 09:23:11;;;;;;;8.60;1.42;;;;;;;27.29;46.48;100214.82;1747780;80;21060;-75
2021/06/20 09:25:40;;;;;;;9.48;1.60;;;;;;;27.45;45.67;100214.66;1741491;80;21853;-75
2021/06/20 09:28:07;;;;;;;10.05;1.50;;;;;;;27.54;45.33;100211.06;1728060;80;21069;-75
2021/06/20 09:30:39;;;;;;;3.65;1.37;;;;;;;27.63;45.84;100209.64;1692288;83;20961;-77
2021/06/20 09:33:07;;;;;;;5.42;1.25;;;;;;;27.73;45.06;100207.17;1713615;81;20997;-76
2021/06/20 09:35:57;;;;;;;7.75;1.45;;;;;;;27.76;44.67;100203.16;1706028;82;21566;-75
2021/06/20 09:38:27;;;;;;;6.30;1.30;;;;;;;27.73;43.92;100202.28;1714374;81;22538;-75
2021/06/20 09:41:11;;;;;;;11.12;1.57;;;;;;;27.63;44.40;100202.86;1717443;82;21415;-75
2021/06/20 09:43:52;;;;;;;4.58;1.30;;;;;;;27.55;44.19;100198.61;1750965;80;21424;-75
2021/06/20 09:46:19;;;;;;;6.83;1.35;;;;;;;27.48;45.01;100195.72;1751753;80;21465;-76
2021/06/20 09:48:47;;;;;;;7.58;1.57;;;;;;;27.51;45.30;100193.91;1718848;81;21016;-76
2021/06/20 09:51:22;;;;;;;4.90;1.30;;;;;;;27.68;45.17;100189.41;1750308;80;22199;-78
2021/06/20 09:53:50;;;;;;;5.45;1.37;;;;;;;27.92;44.96;100176.10;1729127;81;21024;-77
2021/06/20 09:56:29;;;;;;;7.50;1.40;;;;;;;28.21;44.38;100184.27;1714815;82;21407;-76
2021/06/20 09:59:05;;;;;;;8.75;1.40;;;;;;;28.38;43.17;100178.92;1743304;80;21064;-76
2021/06/20 10:01:38;;;;;;;8.20;1.30;;;;;;;28.47;43.13;100175.57;1694997;82;20980;-76
2021/06/20 10:04:04;;;;;;;5.78;1.60;;;;;;;28.59;43.34;100180.11;1717410;82;21786;-80
2021/06/20 10:06:31;;;;;;;8.00;1.65;;;;;;;28.71;43.49;100174.89;1717460;82;21697;-81
2021/06/20 10:08:58;;;;;;;3.55;1.42;;;;;;;28.86;42.78;100185.75;1748373;80;21551;-78
2021/06/20 10:11:25;;;;;;;4.10;1.27;;;;;;;28.98;42.40;100176.46;1749019;80;21040;-77
2021/06/20 10:13:53;;;;;;;7.22;1.30;;;;;;;29.04;42.23;100170.55;1711953;82;21483;-79
2021/06/20 10:16:37;;;;;;;5.58;1.07;;;;;;;29.05;42.15;100165.42;1689809;82;21802;-83
2021/06/20 10:19:15;;;;;;;5.83;1.22;;;;;;;29.04;42.02;100159.13;1716867;81;21075;-75
2021/06/20 10:21:47;;;;;;;3.40;0.93;;;;;;;29.07;42.59;100164.09;1752831;80;21000;-80
2021/06/20 10:24:17;;;;;;;8.33;1.80;;;;;;;29.16;42.63;100158.24;1775623;78;21656;-79
2021/06/20 10:27:04;;;;;;;5.55;1.50;;;;;;;29.25;42.77;100153.48;1761573;78;21067;-81
2021/06/20 10:29:34;;;;;;;5.62;1.40;;;;;;;29.40;42.96;100150.14;1713391;82;21794;-76
2021/06/20 10:32:17;;;;;;;4.20;1.30;;;;;;;29.55;42.61;100144.13;1735043;81;21191;-77
2021/06/20 10:35:00;;;;;;;8.38;1.42;;;;;;;29.58;41.19;100149.06;1698106;82;21097;-77
2021/06/20 10:37:33;;;;;;;6.28;1.30;;;;;;;29.61;42.03;100149.91;1706708;81;21032;-82
2021/06/20 10:40:01;;;;;;;7.40;1.40;;;;;;;29.63;41.39;100147.23;1732205;80;20932;-78
2021/06/20 10:42:38;;;;;;;4.70;1.20;;;;;;;29.67;41.22;100138.56;1738649;78;22628;-80
2021/06/20 10:45:08;;;;;;;8.80;1.40;;;;;;;29.67;41.22;100138.56;1750136;80;20960;-80
2021/06/20 10:47:39;;;;;;;10.30;1.42;;;;;;;29.70;41.57;100139.41;1728192;80;21006;-77
2021/06/20 10:50:15;;;;;;;5.30;1.10;;;;;;;29.72;42.18;100136.70;1726893;80;21037;-77
2021/06/20 10:52:55;;;;;;;5.08;1.40;;;;;;;29.79;42.14;100127.81;1712954;81;21459;-80
2021/06/20 10:55:21;;;;;;;8.23;1.40;;;;;;;29.90;42.30;100127.39;1710144;81;21856;-80
2021/06/20 10:57:55;;;;;;;8.15;1.50;;;;;;;30.09;41.44;100123.82;1719931;81;20961;-81
2021/06/20 11:00:35;;;;;;;10.85;1.95;;;;;;;30.23;42.42;100114.72;1723880;80;21557;-80
2021/06/20 11:03:18;;;;;;;5.47;1.80;;;;;;;30.45;42.57;100111.37;1738147;81;21213;-81
2021/06/20 11:06:11;;;;;;;3.30;1.40;;;;;;;30.63;41.37;100106.90;1717270;82;21412;-79
2021/06/20 11:08:44;;;;;;;4.78;1.22;;;;;;;30.64;40.54;100108.58;1725719;81;21453;-81
2021/06/20 11:11:16;;;;;;;6.25;1.35;;;;;;;30.55;37.69;100104.64;1706772;82;21020;-82
2021/06/20 11:13:46;;;;;;;3.80;1.10;;;;;;;30.32;38.12;100103.63;1725288;80;21004;-81
2021/06/20 11:16:27;;;;;;;7.33;1.15;;;;;;;30.21;37.11;100087.73;1748951;80;21317;-82
2021/06/20 11:19:21;;;;;;;4.47;2.00;;;;;;;30.20;36.13;100085.52;1699510;81;21139;-82
2021/06/20 11:21:57;;;;;;;;;;;;;;;30.15;36.07;100078.68;1726933;80;21839;-81
2021/06/20 11:24:32;;;;;;;4.28;1.90;;;;;;;30.01;34.04;100083.39;1750615;80;20214;-82
2021/06/20 11:27:14;;;;;;;3.67;1.20;;;;;;;29.65;35.49;100087.10;1740951;80;21091;-81
2021/06/20 11:29:53;;;;;;;5.33;1.00;;;;;;;29.60;36.82;100091.93;1713879;82;21459;-81
2021/06/20 11:32:25;;;;;;;1.90;0.90;;;;;;;29.68;38.08;100082.50;1718560;81;21494;-82